createdAt,value
2018-08-28T00:01:48.332Z,99.90
2018-08-28T00:04:17.457Z,99.90
2018-08-28T00:06:46.625Z,99.90
2018-08-28T00:09:16.232Z,99.90
2018-08-28T00:11:45.429Z,99.90
2018-08-28T00:14:16.268Z,99.90
2018-08-28T00:16:45.792Z,99.90
2018-08-28T00:19:15.013Z,99.90
2018-08-28T00:21:44.384Z,99.90
2018-08-28T00:24:13.864Z,99.90
2018-08-28T00:26:43.060Z,99.90
2018-08-28T00:29:12.552Z,99.90
2018-08-28T00:31:42.476Z,99.90
2018-08-28T00:34:11.764Z,99.90
2018-08-28T00:36:40.891Z,99.90
2018-08-28T00:39:10.412Z,99.90
2018-08-28T00:41:39.616Z,99.90
2018-08-28T00:44:09.029Z,99.90
2018-08-28T00:46:38.164Z,99.90
2018-08-28T00:49:07.393Z,99.90
2018-08-28T00:51:36.559Z,99.90
2018-08-28T00:54:06.212Z,99.90
2018-08-28T00:56:35.364Z,99.90
2018-08-28T00:59:05.479Z,99.90
2018-08-28T01:01:34.883Z,99.90
2018-08-28T01:04:04.012Z,99.90
2018-08-28T01:06:33.175Z,99.90
2018-08-28T01:09:02.848Z,99.90
2018-08-28T01:11:31.996Z,99.90
2018-08-28T01:14:01.204Z,99.90
2018-08-28T01:16:30.492Z,99.90
2018-08-28T01:18:59.528Z,99.90
2018-08-28T01:21:28.788Z,99.90
2018-08-28T01:23:58.436Z,99.90
2018-08-28T01:26:27.692Z,99.90
2018-08-28T01:28:56.804Z,99.90
2018-08-28T01:31:26.016Z,99.90
2018-08-28T01:33:55.527Z,99.90
2018-08-28T01:36:25.104Z,99.90
2018-08-28T01:38:54.357Z,99.90
2018-08-28T01:41:23.509Z,99.90
2018-08-28T01:43:52.604Z,99.90
2018-08-28T01:46:23.224Z,99.90
2018-08-28T01:48:52.433Z,99.90
2018-08-28T01:51:22.248Z,99.90
2018-08-28T01:53:51.444Z,99.90
2018-08-28T01:56:21.388Z,99.90
2018-08-28T01:58:50.544Z,99.90
2018-08-28T02:01:19.993Z,99.90
2018-08-28T02:03:49.152Z,99.90
2018-08-28T02:06:18.340Z,99.90
2018-08-28T02:08:47.581Z,99.90
2018-08-28T02:11:16.700Z,99.90
2018-08-28T02:13:45.832Z,99.90
2018-08-28T02:16:15.061Z,99.90
2018-08-28T02:18:44.232Z,99.90
2018-08-28T02:21:13.560Z,99.90
2018-08-28T02:23:43.282Z,99.90
2018-08-28T02:26:12.447Z,99.90
2018-08-28T02:28:42.144Z,99.90
2018-08-28T02:31:11.376Z,99.90
2018-08-28T02:33:40.629Z,99.90
2018-08-28T02:36:09.868Z,99.90
2018-08-28T02:38:39.288Z,99.90
2018-08-28T02:41:08.637Z,99.90
2018-08-28T02:43:37.773Z,99.90
2018-08-28T02:46:07.392Z,99.90
2018-08-28T02:48:36.576Z,99.90
2018-08-28T02:51:05.712Z,99.90
2018-08-28T02:53:34.834Z,99.90
2018-08-28T02:56:04.034Z,99.90
2018-08-28T02:58:33.177Z,99.90
2018-08-28T03:01:02.272Z,99.90
2018-08-28T03:03:31.377Z,99.90
2018-08-28T03:06:00.492Z,99.90
2018-08-28T03:08:30.116Z,99.90
2018-08-28T03:10:59.316Z,99.90
2018-08-28T03:13:28.441Z,99.90
2018-08-28T03:15:57.654Z,99.90
2018-08-28T03:18:26.761Z,99.90
2018-08-28T03:20:55.909Z,99.90
2018-08-28T03:23:25.112Z,99.90
2018-08-28T03:25:54.249Z,99.90
2018-08-28T03:28:24.527Z,99.90
2018-08-28T03:30:53.936Z,99.90
2018-08-28T03:33:23.020Z,99.90
2018-08-28T03:35:52.569Z,99.90
2018-08-28T03:38:22.388Z,99.90
2018-08-28T03:40:51.904Z,99.90
2018-08-28T03:43:21.000Z,99.90
2018-08-28T03:45:50.802Z,99.90
2018-08-28T03:48:20.061Z,99.90
2018-08-28T03:50:49.348Z,99.90
2018-08-28T03:53:19.201Z,99.90
2018-08-28T03:55:48.696Z,99.90
2018-08-28T03:58:17.793Z,99.90
2018-08-28T04:00:47.637Z,99.90
2018-08-28T04:03:16.874Z,99.90
2018-08-28T04:05:46.101Z,99.90
2018-08-28T04:08:15.596Z,99.90
2018-08-28T04:10:44.754Z,99.90
2018-08-28T04:13:13.925Z,99.90
2018-08-28T04:15:43.897Z,99.90
2018-08-28T04:18:13.118Z,99.90
2018-08-28T04:20:42.337Z,99.90
2018-08-28T04:23:11.841Z,99.90
2018-08-28T04:25:41.308Z,99.90
2018-08-28T04:28:10.520Z,99.90
2018-08-28T04:30:39.951Z,99.90
2018-08-28T04:33:08.896Z,99.90
2018-08-28T04:35:37.991Z,99.90
2018-08-28T04:38:07.540Z,99.90
2018-08-28T04:40:36.636Z,99.90
2018-08-28T04:43:06.112Z,99.90
2018-08-28T04:52:22.584Z,99.90
2018-08-28T04:54:51.689Z,99.90
2018-08-28T04:57:20.845Z,99.90
2018-08-28T04:59:51.025Z,99.90
2018-08-28T05:02:20.888Z,99.90
2018-08-28T05:04:49.962Z,99.90
2018-08-28T05:07:20.089Z,99.90
2018-08-28T05:09:49.300Z,99.90
2018-08-28T05:12:19.917Z,99.90
2018-08-28T05:14:49.872Z,99.90
2018-08-28T05:17:18.869Z,99.90
2018-08-28T05:19:48.020Z,99.90
2018-08-28T05:22:17.220Z,99.90
2018-08-28T05:24:46.427Z,99.90
2018-08-28T05:27:16.032Z,99.90
2018-08-28T05:29:45.283Z,99.90
2018-08-28T05:32:15.018Z,99.90
2018-08-28T05:34:45.175Z,99.90
2018-08-28T05:37:14.548Z,99.90
2018-08-28T05:39:43.685Z,99.90
2018-08-28T05:42:13.568Z,99.90
2018-08-28T05:44:43.526Z,99.90
2018-08-28T05:47:13.438Z,99.90
2018-08-28T05:49:43.581Z,99.90
2018-08-28T05:52:14.353Z,99.90
2018-08-28T05:54:44.317Z,99.90
2018-08-28T05:57:14.376Z,99.90
2018-08-28T05:59:44.204Z,99.90
2018-08-28T06:02:13.865Z,99.90
2018-08-28T06:04:43.940Z,99.90
2018-08-28T06:07:13.648Z,99.90
2018-08-28T06:09:42.845Z,99.90
2018-08-28T06:12:12.942Z,99.90
2018-08-28T06:14:42.144Z,99.90
2018-08-28T06:17:11.496Z,99.90
2018-08-28T06:19:40.892Z,99.90
2018-08-28T06:22:11.012Z,99.90
2018-08-28T06:24:41.008Z,99.90
2018-08-28T06:27:10.130Z,99.90
2018-08-28T06:29:39.739Z,99.90
2018-08-28T06:32:08.940Z,99.90
2018-08-28T06:34:38.908Z,99.90
2018-08-28T06:37:09.837Z,99.90
2018-08-28T06:39:38.987Z,99.90
2018-08-28T06:42:09.713Z,99.90
2018-08-28T06:44:38.812Z,99.90
2018-08-28T06:47:08.069Z,99.90
2018-08-28T06:49:37.360Z,99.90
2018-08-28T06:52:06.764Z,99.90
2018-08-28T06:54:35.880Z,99.90
2018-08-28T06:57:06.541Z,99.90
2018-08-28T06:59:35.584Z,99.90
2018-08-28T07:02:05.441Z,99.90
2018-08-28T07:04:35.045Z,99.90
2018-08-28T07:07:04.869Z,99.90
2018-08-28T07:09:34.037Z,99.90
2018-08-28T07:12:03.169Z,99.90
2018-08-28T07:14:32.407Z,99.90
2018-08-28T07:17:01.613Z,99.90
2018-08-28T07:19:31.567Z,99.90
2018-08-28T07:22:05.034Z,99.90
2018-08-28T07:24:40.509Z,99.90
2018-08-28T07:27:10.301Z,99.90
2018-08-28T07:29:40.173Z,99.90
2018-08-28T07:32:09.750Z,98.80
2018-08-28T07:34:38.790Z,96.30
2018-08-28T07:37:08.400Z,96.50
2018-08-28T07:39:38.369Z,95.50
2018-08-28T07:42:08.240Z,93.20
2018-08-28T07:44:37.348Z,91.70
2018-08-28T07:47:07.295Z,90.40
2018-08-28T07:49:36.501Z,88.40
2018-08-28T07:52:06.817Z,85.60
2018-08-28T07:54:37.701Z,91.50
2018-08-28T07:57:06.925Z,91.80
2018-08-28T07:59:36.017Z,91.20
2018-08-28T08:02:05.248Z,89.90
2018-08-28T08:04:35.617Z,86.30
2018-08-28T08:07:04.869Z,81.70
2018-08-28T08:09:34.234Z,83.20
2018-08-28T08:12:03.545Z,81.30
2018-08-28T08:14:32.740Z,80.10
2018-08-28T08:17:02.280Z,77.80
2018-08-28T08:19:31.476Z,75.10
2018-08-28T08:22:01.749Z,68.20
2018-08-28T08:24:30.905Z,73.90
2018-08-28T08:26:59.990Z,65.80
2018-08-28T08:29:30.005Z,61.60
2018-08-28T08:31:59.074Z,59.60
2018-08-28T08:34:29.496Z,56.70
2018-08-28T08:36:58.700Z,60.00
2018-08-28T08:39:28.597Z,57.60
2018-08-28T08:41:57.852Z,54.70
2018-08-28T08:44:27.860Z,52.30
2018-08-28T08:46:57.869Z,49.70
2018-08-28T08:49:27.118Z,48.60
2018-08-28T08:51:56.184Z,47.80
2018-08-28T08:54:25.361Z,48.80
2018-08-28T08:56:54.506Z,48.50
2018-08-28T08:59:23.728Z,48.20
2018-08-28T09:01:53.382Z,47.60
2018-08-28T09:04:24.432Z,52.40
2018-08-28T09:06:53.568Z,54.70
2018-08-28T09:09:22.976Z,51.80
2018-08-28T09:11:52.805Z,50.90
2018-08-28T09:14:21.885Z,54.40
2018-08-28T09:16:50.956Z,57.70
2018-08-28T09:19:20.753Z,54.00
2018-08-28T09:21:50.217Z,49.60
2018-08-28T09:24:19.420Z,50.70
2018-08-28T09:26:50.273Z,50.10
2018-08-28T09:29:19.344Z,48.90
2018-08-28T09:31:48.490Z,47.30
2018-08-28T09:34:18.017Z,45.70
2018-08-28T09:36:47.165Z,48.20
2018-08-28T09:39:16.403Z,47.90
2018-08-28T09:41:45.628Z,47.10
2018-08-28T09:44:14.696Z,44.80
2018-08-28T09:46:43.785Z,42.30
2018-08-28T09:49:13.549Z,45.30
2018-08-28T09:51:42.724Z,46.80
2018-08-28T09:54:12.918Z,44.80
2018-08-28T09:56:44.476Z,46.50
2018-08-28T09:59:14.384Z,43.90
2018-08-28T10:01:44.892Z,41.90
2018-08-28T10:04:15.886Z,43.90
2018-08-28T10:06:45.046Z,40.60
2018-08-28T10:09:15.236Z,36.90
2018-08-28T10:11:46.389Z,40.90
2018-08-28T10:14:16.189Z,40.90
2018-08-28T10:16:45.906Z,42.70
2018-08-28T10:19:15.652Z,42.60
2018-08-28T10:21:46.409Z,45.30
2018-08-28T10:24:16.149Z,44.80
2018-08-28T10:26:45.257Z,46.00
2018-08-28T10:29:14.353Z,45.00
2018-08-28T10:31:43.713Z,42.40
2018-08-28T10:34:13.556Z,47.30
2018-08-28T10:36:42.620Z,48.00
2018-08-28T10:39:12.752Z,44.20
2018-08-28T10:41:42.425Z,43.90
2018-08-28T10:44:12.151Z,44.60
2018-08-28T10:46:41.496Z,45.30
2018-08-28T10:49:11.146Z,43.70
2018-08-28T10:51:40.278Z,43.10
2018-08-28T10:54:09.446Z,41.80
2018-08-28T10:56:38.583Z,38.80
2018-08-28T10:59:07.840Z,40.20
2018-08-28T11:01:38.051Z,40.10
2018-08-28T11:04:07.281Z,39.20
2018-08-28T11:06:36.659Z,39.10
2018-08-28T11:09:06.691Z,43.60
2018-08-28T11:11:35.825Z,45.00
2018-08-28T11:14:05.017Z,44.20
2018-08-28T11:16:35.197Z,45.70
2018-08-28T11:19:04.361Z,43.20
2018-08-28T11:21:34.355Z,41.50
2018-08-28T11:24:03.539Z,40.10
2018-08-28T11:26:33.046Z,40.80
2018-08-28T11:29:08.257Z,42.10
2018-08-28T11:31:37.313Z,47.10
2018-08-28T11:34:06.751Z,43.20
2018-08-28T11:36:35.989Z,41.50
2018-08-28T11:39:08.320Z,40.90
2018-08-28T11:41:37.614Z,40.80
2018-08-28T11:44:07.629Z,39.90
2018-08-28T11:46:37.778Z,41.20
2018-08-28T11:49:06.938Z,42.70
2018-08-28T11:51:36.726Z,41.70
2018-08-28T11:54:05.953Z,41.80
2018-08-28T11:56:35.029Z,41.40
2018-08-28T11:59:04.324Z,41.40
2018-08-28T12:01:33.475Z,42.20
2018-08-28T12:04:03.156Z,41.30
2018-08-28T12:06:32.689Z,40.20
2018-08-28T12:09:01.813Z,41.20
2018-08-28T12:11:30.859Z,42.30
2018-08-28T12:14:00.152Z,42.30
2018-08-28T12:16:29.680Z,40.90
2018-08-28T12:18:58.808Z,40.50
2018-08-28T12:21:29.377Z,44.30
2018-08-28T12:23:58.557Z,46.10
2018-08-28T12:26:27.757Z,43.30
2018-08-28T12:28:57.492Z,41.80
2018-08-28T12:31:26.494Z,42.40
2018-08-28T12:33:55.581Z,41.70
2018-08-28T12:36:25.556Z,41.70
2018-08-28T12:38:54.688Z,40.20
2018-08-28T12:41:24.569Z,43.10
2018-08-28T12:43:53.669Z,41.70
2018-08-28T12:46:22.956Z,41.70
2018-08-28T12:48:52.685Z,40.80
2018-08-28T12:51:21.879Z,40.70
2018-08-28T12:53:51.009Z,40.90
2018-08-28T12:56:20.566Z,41.40
2018-08-28T12:58:49.613Z,41.40
2018-08-28T13:01:18.660Z,40.90
2018-08-28T13:03:47.951Z,42.20
2018-08-28T13:06:17.292Z,42.10
2018-08-28T13:08:46.549Z,40.30
2018-08-28T13:11:15.788Z,40.10
2018-08-28T13:13:44.960Z,39.50
2018-08-28T13:16:14.064Z,40.90
2018-08-28T13:18:43.205Z,39.30
2018-08-28T13:21:12.341Z,39.30
2018-08-28T13:23:41.457Z,40.80
2018-08-28T13:26:10.933Z,41.40
2018-08-28T13:28:40.544Z,41.00
2018-08-28T13:31:09.889Z,40.10
2018-08-28T13:33:39.711Z,41.10
2018-08-28T13:36:09.160Z,39.80
2018-08-28T13:38:38.277Z,41.50
2018-08-28T13:41:07.636Z,41.60
2018-08-28T13:43:36.757Z,40.10
2018-08-28T13:46:05.896Z,39.80
2018-08-28T13:48:35.280Z,40.40
2018-08-28T13:51:05.983Z,42.70
2018-08-28T13:53:35.167Z,41.40
2018-08-28T13:56:04.773Z,41.40
2018-08-28T13:58:33.900Z,40.90
2018-08-28T14:01:02.992Z,40.20
2018-08-28T14:03:32.394Z,40.40
2018-08-28T14:06:01.474Z,40.50
2018-08-28T14:08:30.596Z,40.90
2018-08-28T14:10:59.721Z,40.90
2018-08-28T14:13:28.986Z,40.20
2018-08-28T14:15:58.075Z,40.80
2018-08-28T14:18:27.184Z,41.90
2018-08-28T14:20:56.572Z,42.60
2018-08-28T14:23:25.771Z,42.50
2018-08-28T14:25:55.820Z,42.60
2018-08-28T14:28:24.952Z,41.60
2018-08-28T14:30:54.092Z,41.80
2018-08-28T14:33:23.589Z,40.50
2018-08-28T14:35:52.680Z,40.80
2018-08-28T14:38:21.765Z,40.40
2018-08-28T14:40:51.621Z,41.10
2018-08-28T14:43:20.696Z,41.40
2018-08-28T14:45:49.840Z,42.60
2018-08-28T14:48:18.981Z,44.50
2018-08-28T14:50:48.091Z,45.60
2018-08-28T14:53:17.286Z,47.00
2018-08-28T14:55:46.714Z,46.10
2018-08-28T14:58:15.884Z,45.80
2018-08-28T15:00:45.069Z,45.40
2018-08-28T15:03:14.989Z,45.40
2018-08-28T15:05:45.014Z,46.70
2018-08-28T15:08:14.108Z,46.00
2018-08-28T15:10:43.180Z,48.10
2018-08-28T15:13:12.848Z,48.70
2018-08-28T15:15:42.008Z,49.00
2018-08-28T15:18:11.185Z,48.20
2018-08-28T15:20:40.401Z,47.80
2018-08-28T15:23:11.349Z,48.30
2018-08-28T15:25:40.575Z,49.10
2018-08-28T15:28:10.260Z,48.90
2018-08-28T15:30:40.184Z,48.80
2018-08-28T15:33:09.396Z,48.50
2018-08-28T15:35:38.540Z,49.10
2018-08-28T15:38:08.609Z,49.90
2018-08-28T15:40:38.508Z,50.00
2018-08-28T15:43:07.787Z,51.70
2018-08-28T15:45:37.509Z,49.60
2018-08-28T15:48:07.304Z,49.70
2018-08-28T15:50:37.002Z,50.60
2018-08-28T15:53:06.101Z,50.30
2018-08-28T15:55:35.192Z,49.60
2018-08-28T15:58:04.400Z,50.60
2018-08-28T16:00:33.612Z,49.70
2018-08-28T16:03:02.814Z,49.90
2018-08-28T16:05:31.933Z,52.90
2018-08-28T16:08:00.980Z,51.50
2018-08-28T16:10:30.786Z,52.30
2018-08-28T16:13:00.512Z,53.10
2018-08-28T16:15:29.696Z,53.50
2018-08-28T16:17:59.154Z,54.80
2018-08-28T16:20:28.516Z,53.80
2018-08-28T16:22:59.966Z,55.30
2018-08-28T16:25:29.172Z,55.10
2018-08-28T16:27:58.405Z,53.80
2018-08-28T16:30:27.574Z,54.00
2018-08-28T16:32:57.099Z,54.60
2018-08-28T16:35:26.244Z,55.10
2018-08-28T16:37:55.463Z,56.20
2018-08-28T16:40:25.196Z,59.10
2018-08-28T16:42:54.405Z,56.70
2018-08-28T16:45:23.445Z,56.80
2018-08-28T16:47:53.724Z,59.00
2018-08-28T16:50:22.897Z,59.30
2018-08-28T16:52:52.316Z,57.70
2018-08-28T16:55:21.431Z,61.20
2018-08-28T16:57:50.590Z,57.60
2018-08-28T17:00:19.685Z,60.90
2018-08-28T17:02:49.384Z,62.90
2018-08-28T17:05:18.608Z,63.60
2018-08-28T17:07:47.792Z,64.70
2018-08-28T17:10:17.192Z,65.30
2018-08-28T17:12:46.492Z,66.50
2018-08-28T17:15:15.694Z,67.30
2018-08-28T17:17:45.070Z,68.20
2018-08-28T17:20:14.168Z,68.00
2018-08-28T17:22:43.393Z,69.70
2018-08-28T17:25:13.508Z,78.50
2018-08-28T17:27:42.684Z,79.60
2018-08-28T17:30:12.492Z,81.70
2018-08-28T17:32:41.720Z,77.30
2018-08-28T17:35:10.888Z,78.40
2018-08-28T17:37:40.132Z,78.20
2018-08-28T17:40:09.841Z,81.00
2018-08-28T17:42:39.671Z,79.20
2018-08-28T17:45:08.852Z,85.00
2018-08-28T17:47:38.028Z,80.60
2018-08-28T17:50:07.459Z,80.60
2018-08-28T17:52:38.253Z,80.30
2018-08-28T17:55:07.828Z,82.90
2018-08-28T17:57:36.973Z,82.60
2018-08-28T18:00:07.813Z,81.70
2018-08-28T18:02:37.010Z,84.90
2018-08-28T18:05:07.031Z,85.50
2018-08-28T18:07:36.236Z,89.70
2018-08-28T18:10:05.496Z,91.30
2018-08-28T18:12:34.900Z,91.90
2018-08-28T18:15:05.916Z,92.60
2018-08-28T18:17:35.060Z,92.00
2018-08-28T18:20:04.209Z,91.00
2018-08-28T18:22:33.769Z,91.50
2018-08-28T18:25:02.876Z,91.80
2018-08-28T18:27:31.981Z,91.50
2018-08-28T18:30:01.169Z,92.90
2018-08-28T18:32:30.337Z,93.50
2018-08-28T18:35:00.036Z,93.80
2018-08-28T18:37:29.757Z,94.60
2018-08-28T18:39:59.068Z,94.70
2018-08-28T18:42:29.218Z,95.80
2018-08-28T18:44:58.692Z,96.20
2018-08-28T18:47:27.720Z,96.70
2018-08-28T18:49:56.920Z,97.00
2018-08-28T18:52:26.596Z,98.10
2018-08-28T18:54:59.620Z,98.70
2018-08-28T18:57:28.974Z,98.90
2018-08-28T18:59:58.152Z,99.20
2018-08-28T19:02:27.277Z,98.80
2018-08-28T19:04:56.801Z,98.50
2018-08-28T19:07:25.949Z,98.80
2018-08-28T19:09:55.665Z,99.30
2018-08-28T19:12:25.279Z,99.90
2018-08-28T19:14:55.416Z,99.90
2018-08-28T19:17:24.613Z,99.90
2018-08-28T19:19:53.844Z,99.90
2018-08-28T19:22:23.020Z,99.90
2018-08-28T19:24:52.334Z,99.90
2018-08-28T19:27:21.504Z,99.90
2018-08-28T19:29:50.704Z,99.90
2018-08-28T19:32:20.026Z,99.90
2018-08-28T19:34:49.188Z,99.90
2018-08-28T19:37:18.469Z,99.90
2018-08-28T19:39:47.472Z,99.90
2018-08-28T19:42:22.272Z,99.90
2018-08-28T19:44:51.398Z,99.90
2018-08-28T19:47:21.512Z,99.90
2018-08-28T19:49:50.999Z,99.90
2018-08-28T19:52:20.110Z,99.90
2018-08-28T19:54:49.236Z,99.90
2018-08-28T19:57:18.762Z,99.90
2018-08-28T19:59:47.916Z,99.90
2018-08-28T20:02:17.120Z,99.90
2018-08-28T20:04:47.076Z,99.90
2018-08-28T20:07:16.731Z,99.90
2018-08-28T20:09:45.857Z,99.90
2018-08-28T20:12:15.080Z,99.90
2018-08-28T20:14:44.259Z,99.90
2018-08-28T20:17:14.500Z,99.90
2018-08-28T20:19:44.285Z,99.90
2018-08-28T20:22:13.456Z,99.90
2018-08-28T20:24:42.677Z,99.90
2018-08-28T20:27:12.416Z,99.90
2018-08-28T20:29:42.688Z,99.90
2018-08-28T20:32:11.684Z,99.90
2018-08-28T20:34:42.023Z,99.90
2018-08-28T20:37:11.178Z,99.90
2018-08-28T20:39:40.249Z,99.90
2018-08-28T20:42:09.649Z,99.90
2018-08-28T20:44:38.692Z,99.90
2018-08-28T20:47:08.096Z,99.90
2018-08-28T20:49:37.924Z,99.90
2018-08-28T20:52:07.576Z,99.90
2018-08-28T20:54:36.627Z,99.90
2018-08-28T20:57:06.132Z,99.90
2018-08-28T20:59:35.729Z,99.90
2018-08-28T21:02:04.936Z,99.90
2018-08-28T21:04:34.032Z,99.90
2018-08-28T21:07:03.250Z,99.90
2018-08-28T21:09:34.276Z,99.90
2018-08-28T21:12:04.120Z,99.90
2018-08-28T21:14:33.736Z,99.90
2018-08-28T21:17:04.839Z,99.90
2018-08-28T21:19:34.032Z,99.90
2018-08-28T21:22:03.425Z,99.90
2018-08-28T21:24:32.517Z,99.90
2018-08-28T21:27:01.740Z,99.90
2018-08-28T21:29:31.067Z,99.90
2018-08-28T21:32:00.137Z,99.90
2018-08-28T21:34:29.664Z,99.90
2018-08-28T21:36:58.816Z,99.90
2018-08-28T21:39:28.688Z,99.90
2018-08-28T21:41:58.141Z,99.90
2018-08-28T21:44:28.153Z,99.90
2018-08-28T21:46:57.272Z,99.90
2018-08-28T21:49:27.467Z,99.90
2018-08-28T21:51:56.555Z,99.90
2018-08-28T21:54:25.656Z,99.90
2018-08-28T21:56:55.264Z,99.90
2018-08-28T21:59:24.484Z,99.90
2018-08-28T22:01:54.080Z,99.90
2018-08-28T22:04:23.516Z,99.90
2018-08-28T22:06:58.132Z,99.90
2018-08-28T22:09:27.653Z,99.90
2018-08-28T22:11:56.800Z,99.90
2018-08-28T22:17:02.620Z,99.90
2018-08-28T22:19:31.928Z,99.90
2018-08-28T22:22:01.092Z,99.90
2018-08-28T22:24:30.620Z,99.90
2018-08-28T22:26:59.772Z,99.90
2018-08-28T22:29:28.916Z,99.90
2018-08-28T22:31:58.386Z,99.90
2018-08-28T22:34:27.568Z,99.90
2018-08-28T22:36:57.201Z,99.90
2018-08-28T22:39:26.425Z,99.90
2018-08-28T22:41:55.568Z,99.90
2018-08-28T22:44:24.718Z,99.90
2018-08-28T22:46:53.876Z,99.90
2018-08-28T22:49:23.112Z,99.90
2018-08-28T22:51:52.285Z,99.90
2018-08-28T22:54:21.473Z,99.90
2018-08-28T22:56:50.672Z,99.90
2018-08-28T22:59:19.880Z,99.90
2018-08-28T23:01:50.331Z,99.90
2018-08-28T23:04:19.736Z,99.90
2018-08-28T23:06:48.932Z,99.90
2018-08-28T23:09:18.496Z,99.90
2018-08-28T23:11:47.604Z,99.90
2018-08-28T23:14:17.190Z,99.90
2018-08-28T23:16:46.648Z,99.90
2018-08-28T23:19:15.828Z,99.90
2018-08-28T23:21:44.988Z,99.90
2018-08-28T23:24:14.441Z,99.90
2018-08-28T23:26:43.553Z,99.90
2018-08-28T23:29:12.808Z,99.90
2018-08-28T23:31:42.436Z,99.90
2018-08-28T23:34:11.593Z,99.90
2018-08-28T23:36:40.813Z,99.90
2018-08-28T23:39:11.252Z,99.90
2018-08-28T23:41:40.364Z,99.90
2018-08-28T23:44:09.712Z,99.90
2018-08-28T23:46:38.924Z,99.90
2018-08-28T23:49:08.032Z,99.90
2018-08-28T23:51:37.104Z,99.90
2018-08-28T23:54:06.516Z,99.90
2018-08-28T23:56:35.723Z,99.90
2018-08-28T23:59:05.207Z,99.90
